createdAt,value
2019-05-30T00:00:05.731Z,84.20
2019-05-30T00:02:21.994Z,84.60
2019-05-30T00:04:54.117Z,84.40
2019-05-30T00:07:25.223Z,84.30
2019-05-30T00:09:56.299Z,84.40
2019-05-30T00:12:34.209Z,84.50
2019-05-30T00:15:05.897Z,84.50
2019-05-30T00:17:37.082Z,84.70
2019-05-30T00:20:09.433Z,84.40
2019-05-30T00:22:42.945Z,84.60
2019-05-30T00:25:16.783Z,84.90
2019-05-30T00:27:49.736Z,85.00
2019-05-30T00:30:24.753Z,84.80
2019-05-30T00:32:53.942Z,84.70
2019-05-30T00:35:24.838Z,84.90
2019-05-30T00:37:55.631Z,85.30
2019-05-30T00:40:25.806Z,85.30
2019-05-30T00:42:57.807Z,85.40
2019-05-30T00:45:28.978Z,85.20
2019-05-30T00:48:00.042Z,85.20
2019-05-30T00:50:30.019Z,85.20
2019-05-30T00:53:02.911Z,85.40
2019-05-30T00:55:35.854Z,85.30
2019-05-30T00:58:07.508Z,85.20
2019-05-30T01:00:43.587Z,85.40
2019-05-30T01:03:10.617Z,85.20
2019-05-30T01:05:41.860Z,84.90
2019-05-30T01:08:14.712Z,85.30
2019-05-30T01:10:44.754Z,85.20
2019-05-30T01:13:17.059Z,85.50
2019-05-30T01:15:56.860Z,85.60
2019-05-30T01:18:28.049Z,86.00
2019-05-30T01:20:59.156Z,85.70
2019-05-30T01:23:31.851Z,85.70
2019-05-30T01:26:05.472Z,86.00
2019-05-30T01:28:39.395Z,85.80
2019-05-30T01:31:11.114Z,85.50
2019-05-30T01:33:45.650Z,85.20
2019-05-30T01:36:16.857Z,85.30
2019-05-30T01:38:48.000Z,86.00
2019-05-30T01:41:24.001Z,86.00
2019-05-30T01:43:56.372Z,85.70
2019-05-30T01:46:27.569Z,86.00
2019-05-30T01:48:58.167Z,86.30
2019-05-30T01:51:33.412Z,86.00
2019-05-30T01:54:06.614Z,85.90
2019-05-30T01:56:37.572Z,86.20
2019-05-30T01:59:08.901Z,86.20
2019-05-30T02:01:40.365Z,86.40
2019-05-30T02:04:13.108Z,86.10
2019-05-30T02:06:44.454Z,86.40
2019-05-30T02:09:14.402Z,86.20
2019-05-30T02:11:46.697Z,86.30
2019-05-30T02:14:22.831Z,86.50
2019-05-30T02:16:52.702Z,86.40
2019-05-30T02:19:23.681Z,86.90
2019-05-30T02:21:55.094Z,86.80
2019-05-30T02:24:26.106Z,86.70
2019-05-30T02:26:58.350Z,86.60
2019-05-30T02:29:29.255Z,86.50
2019-05-30T02:32:00.827Z,86.50
2019-05-30T02:34:30.802Z,86.60
2019-05-30T02:37:03.435Z,86.50
2019-05-30T02:39:36.076Z,86.50
2019-05-30T02:42:09.409Z,86.60
2019-05-30T02:44:39.535Z,86.70
2019-05-30T02:47:12.152Z,86.50
2019-05-30T02:49:44.742Z,86.30
2019-05-30T02:52:16.071Z,86.50
2019-05-30T02:54:47.114Z,86.10
2019-05-30T02:57:18.171Z,86.60
2019-05-30T02:59:48.035Z,86.30
2019-05-30T03:02:18.610Z,86.30
2019-05-30T03:04:52.637Z,86.30
2019-05-30T03:07:26.077Z,86.60
2019-05-30T03:09:59.173Z,86.60
2019-05-30T03:12:31.630Z,86.70
2019-05-30T03:15:02.567Z,86.20
2019-05-30T03:17:35.579Z,86.20
2019-05-30T03:20:17.985Z,86.20
2019-05-30T03:22:40.313Z,86.10
2019-05-30T03:25:16.145Z,86.20
2019-05-30T03:27:46.516Z,86.20
2019-05-30T03:30:26.735Z,86.10
2019-05-30T03:33:24.650Z,86.30
2019-05-30T03:35:29.314Z,86.10
2019-05-30T03:37:55.546Z,86.20
2019-05-30T03:40:28.233Z,86.10
2019-05-30T03:42:58.091Z,86.00
2019-05-30T03:48:04.287Z,85.70
2019-05-30T03:50:38.446Z,85.80
2019-05-30T03:53:13.803Z,86.00
2019-05-30T03:55:46.447Z,86.00
2019-05-30T03:58:32.229Z,86.20
2019-05-30T04:01:08.288Z,86.40
2019-05-30T04:04:06.435Z,86.40
2019-05-30T04:06:49.655Z,86.10
2019-05-30T04:09:25.185Z,86.30
2019-05-30T04:12:19.991Z,86.00
2019-05-30T04:14:53.146Z,86.00
2019-05-30T04:17:23.073Z,86.00
2019-05-30T04:20:20.546Z,86.00
2019-05-30T04:22:47.678Z,86.10
2019-05-30T04:25:18.555Z,85.40
2019-05-30T04:27:49.876Z,85.70
2019-05-30T04:30:20.866Z,85.60
2019-05-30T04:33:15.733Z,84.80
2019-05-30T04:35:28.057Z,83.80
2019-05-30T04:37:58.988Z,83.80
2019-05-30T04:40:31.552Z,83.60
2019-05-30T04:43:02.406Z,82.40
2019-05-30T04:45:33.618Z,82.50
2019-05-30T04:48:07.333Z,82.20
2019-05-30T04:50:36.670Z,82.30
2019-05-30T04:53:07.819Z,81.40
2019-05-30T04:55:40.730Z,80.80
2019-05-30T04:58:13.348Z,80.30
2019-05-30T05:00:46.379Z,79.80
2019-05-30T05:03:43.443Z,78.90
2019-05-30T05:05:55.443Z,78.30
2019-05-30T05:08:44.787Z,78.30
2019-05-30T05:11:18.655Z,79.00
2019-05-30T05:13:49.340Z,78.00
2019-05-30T05:16:31.341Z,77.70
2019-05-30T05:18:53.225Z,77.30
2019-05-30T05:21:25.452Z,76.70
2019-05-30T05:23:56.827Z,76.70
2019-05-30T05:26:25.858Z,76.00
2019-05-30T05:28:58.581Z,76.60
2019-05-30T05:33:59.675Z,74.70
2019-05-30T05:36:31.125Z,74.50
2019-05-30T05:39:02.546Z,74.60
2019-05-30T05:41:33.660Z,74.80
2019-05-30T05:44:04.855Z,75.00
2019-05-30T05:46:36.834Z,74.00
2019-05-30T05:49:08.267Z,73.10
2019-05-30T05:51:41.395Z,73.50
2019-05-30T05:54:14.574Z,73.40
2019-05-30T05:56:47.791Z,72.70
2019-05-30T05:59:20.952Z,71.90
2019-05-30T06:01:52.794Z,70.90
2019-05-30T06:04:25.353Z,68.90
2019-05-30T06:06:58.299Z,69.00
2019-05-30T06:09:28.765Z,69.30
2019-05-30T06:12:01.343Z,69.00
2019-05-30T06:14:32.279Z,66.60
2019-05-30T06:17:03.715Z,66.90
2019-05-30T06:19:46.060Z,67.80
2019-05-30T06:22:29.495Z,69.00
2019-05-30T06:24:59.516Z,67.40
2019-05-30T06:27:30.691Z,66.50
2019-05-30T06:30:04.534Z,62.20
2019-05-30T06:32:35.890Z,63.70
2019-05-30T06:35:09.692Z,63.90
2019-05-30T06:37:40.825Z,61.30
2019-05-30T06:40:14.341Z,60.50
2019-05-30T06:42:47.689Z,59.80
2019-05-30T06:45:23.643Z,59.00
2019-05-30T06:47:53.917Z,60.80
2019-05-30T06:50:25.325Z,61.30
2019-05-30T06:52:56.770Z,62.90
2019-05-30T06:55:27.281Z,63.60
2019-05-30T06:57:57.096Z,61.60
2019-05-30T07:00:28.103Z,59.00
2019-05-30T07:03:00.444Z,59.80
2019-05-30T07:05:32.246Z,56.00
2019-05-30T07:08:05.178Z,58.50
2019-05-30T07:10:36.632Z,59.70
2019-05-30T07:13:07.548Z,61.10
2019-05-30T07:15:37.504Z,61.90
2019-05-30T07:18:09.098Z,62.10
2019-05-30T07:20:40.606Z,60.70
2019-05-30T07:23:12.993Z,60.30
2019-05-30T07:25:46.395Z,59.20
2019-05-30T07:28:23.708Z,58.90
2019-05-30T07:30:55.349Z,59.20
2019-05-30T07:36:00.450Z,59.10
2019-05-30T07:38:32.532Z,57.90
2019-05-30T07:41:05.439Z,58.90
2019-05-30T07:43:36.322Z,60.80
2019-05-30T07:46:07.770Z,59.30
2019-05-30T07:48:38.588Z,59.70
2019-05-30T07:51:10.194Z,58.60
2019-05-30T07:53:42.687Z,57.00
2019-05-30T07:56:15.425Z,57.80
2019-05-30T07:58:46.841Z,58.70
2019-05-30T08:01:19.397Z,58.20
2019-05-30T08:03:52.598Z,57.40
2019-05-30T08:06:27.408Z,57.10
2019-05-30T08:09:02.202Z,58.10
2019-05-30T08:11:35.123Z,57.50
2019-05-30T08:14:07.544Z,57.40
2019-05-30T08:16:40.332Z,56.70
2019-05-30T08:19:22.137Z,56.70
2019-05-30T08:21:51.170Z,57.90
2019-05-30T08:24:22.522Z,57.50
2019-05-30T08:26:53.746Z,57.60
2019-05-30T08:29:28.068Z,58.50
2019-05-30T08:31:58.259Z,57.20
2019-05-30T08:34:32.876Z,55.50
2019-05-30T08:37:04.096Z,56.30
2019-05-30T08:39:35.298Z,57.00
2019-05-30T08:42:07.277Z,56.50
2019-05-30T08:44:38.142Z,55.10
2019-05-30T08:47:11.200Z,55.90
2019-05-30T08:49:42.454Z,56.00
2019-05-30T08:52:15.459Z,55.90
2019-05-30T08:54:46.440Z,55.70
2019-05-30T08:57:17.659Z,56.40
2019-05-30T08:59:48.171Z,54.10
2019-05-30T09:02:21.706Z,53.40
2019-05-30T09:04:56.156Z,54.30
2019-05-30T09:07:27.187Z,54.50
2019-05-30T09:09:57.588Z,54.20
2019-05-30T09:12:28.791Z,54.80
2019-05-30T09:15:02.302Z,54.10
2019-05-30T09:17:33.535Z,53.60
2019-05-30T09:20:08.030Z,54.50
2019-05-30T09:22:39.805Z,52.80
2019-05-30T09:25:13.688Z,52.10
2019-05-30T09:27:45.203Z,52.90
2019-05-30T09:30:19.136Z,53.20
2019-05-30T09:32:50.398Z,54.50
2019-05-30T09:35:23.409Z,53.40
2019-05-30T09:37:57.441Z,53.00
2019-05-30T09:40:28.224Z,53.80
2019-05-30T09:42:58.229Z,52.70
2019-05-30T09:45:29.891Z,52.80
2019-05-30T09:48:02.665Z,52.60
2019-05-30T09:50:34.872Z,51.90
2019-05-30T09:53:06.257Z,52.40
2019-05-30T09:55:36.177Z,53.80
2019-05-30T09:58:09.592Z,53.50
2019-05-30T10:00:42.876Z,53.90
2019-05-30T10:03:12.795Z,52.90
2019-05-30T10:05:45.141Z,54.50
2019-05-30T10:08:17.415Z,52.70
2019-05-30T10:10:49.593Z,52.90
2019-05-30T10:13:23.407Z,52.60
2019-05-30T10:15:56.633Z,53.00
2019-05-30T10:18:30.652Z,52.10
2019-05-30T10:21:02.180Z,51.80
2019-05-30T10:23:33.207Z,51.90
2019-05-30T10:26:06.277Z,52.10
2019-05-30T10:28:36.318Z,52.30
2019-05-30T10:31:08.532Z,52.70
2019-05-30T10:33:37.914Z,52.40
2019-05-30T10:36:14.424Z,53.60
2019-05-30T10:38:42.842Z,51.50
2019-05-30T10:41:14.385Z,52.80
2019-05-30T10:43:47.450Z,51.60
2019-05-30T10:46:17.617Z,53.70
2019-05-30T10:48:49.134Z,53.70
2019-05-30T10:51:22.039Z,52.10
2019-05-30T10:53:57.788Z,51.70
2019-05-30T10:56:32.207Z,52.30
2019-05-30T10:59:06.177Z,52.70
2019-05-30T11:01:41.019Z,51.80
2019-05-30T11:04:12.239Z,51.60
2019-05-30T11:07:11.323Z,51.60
2019-05-30T11:09:42.831Z,51.40
2019-05-30T11:12:13.072Z,52.00
2019-05-30T11:14:43.674Z,53.10
2019-05-30T11:17:15.681Z,51.90
2019-05-30T11:19:49.873Z,52.40
2019-05-30T11:22:21.302Z,51.30
2019-05-30T11:25:12.138Z,51.00
2019-05-30T11:27:45.107Z,51.20
2019-05-30T11:30:18.470Z,51.50
2019-05-30T11:32:52.971Z,51.00
2019-05-30T11:35:26.747Z,52.30
2019-05-30T11:37:57.309Z,52.70
2019-05-30T11:40:29.850Z,51.00
2019-05-30T11:43:01.223Z,51.50
2019-05-30T11:45:32.527Z,51.00
2019-05-30T11:48:24.365Z,51.90
2019-05-30T11:50:57.956Z,52.20
2019-05-30T11:53:30.489Z,51.60
2019-05-30T11:56:03.006Z,51.50
2019-05-30T11:58:34.317Z,51.90
2019-05-30T12:01:06.341Z,52.70
2019-05-30T12:06:12.999Z,51.30
2019-05-30T12:08:43.891Z,52.20
2019-05-30T12:11:15.040Z,52.40
2019-05-30T12:13:44.457Z,53.90
2019-05-30T12:16:15.927Z,53.30
2019-05-30T12:18:47.868Z,54.50
2019-05-30T12:21:20.443Z,53.00
2019-05-30T12:23:54.462Z,54.00
2019-05-30T12:26:24.496Z,54.70
2019-05-30T12:28:55.957Z,55.10
2019-05-30T12:31:26.038Z,55.90
2019-05-30T12:33:58.489Z,55.20
2019-05-30T12:36:29.700Z,55.20
2019-05-30T12:39:00.804Z,55.10
2019-05-30T12:41:34.459Z,55.50
2019-05-30T12:44:06.951Z,55.50
2019-05-30T12:46:36.958Z,54.80
2019-05-30T12:49:10.045Z,54.80
2019-05-30T12:51:43.183Z,56.10
2019-05-30T12:54:13.909Z,57.40
2019-05-30T12:56:44.035Z,56.50
2019-05-30T12:59:16.267Z,56.40
2019-05-30T13:01:47.562Z,56.20
2019-05-30T13:04:19.765Z,56.40
2019-05-30T13:06:54.248Z,55.40
2019-05-30T13:09:27.311Z,56.20
2019-05-30T13:12:01.093Z,57.30
2019-05-30T13:14:30.982Z,58.20
2019-05-30T13:17:01.841Z,57.20
2019-05-30T13:19:35.671Z,57.00
2019-05-30T13:22:07.712Z,57.00
2019-05-30T13:24:42.108Z,57.60
2019-05-30T13:27:14.471Z,57.30
2019-05-30T13:29:45.610Z,57.50
2019-05-30T13:32:20.894Z,58.40
2019-05-30T13:34:53.864Z,58.40
2019-05-30T13:37:23.831Z,57.80
2019-05-30T13:39:54.674Z,58.10
2019-05-30T13:42:25.843Z,57.90
2019-05-30T13:44:57.771Z,59.30
2019-05-30T13:47:29.165Z,59.90
2019-05-30T13:50:02.991Z,57.80
2019-05-30T13:52:37.790Z,59.30
2019-05-30T13:55:13.373Z,57.80
2019-05-30T13:57:43.526Z,58.00
2019-05-30T14:00:17.793Z,56.50
2019-05-30T14:02:50.379Z,58.20
2019-05-30T14:05:21.382Z,56.80
2019-05-30T14:07:55.124Z,56.40
2019-05-30T14:10:26.555Z,57.50
2019-05-30T14:12:58.387Z,58.90
2019-05-30T14:15:29.656Z,59.90
2019-05-30T14:20:34.707Z,59.10
2019-05-30T14:23:07.361Z,57.00
2019-05-30T14:25:38.874Z,58.10
2019-05-30T14:28:12.120Z,57.50
2019-05-30T14:30:43.736Z,58.80
2019-05-30T14:33:15.771Z,57.60
2019-05-30T14:35:49.195Z,59.00
2019-05-30T14:38:22.178Z,59.20
2019-05-30T14:40:52.166Z,60.50
2019-05-30T14:43:25.520Z,58.90
2019-05-30T14:45:58.585Z,59.60
2019-05-30T14:48:30.074Z,58.70
2019-05-30T14:51:02.850Z,58.50
2019-05-30T14:53:36.372Z,57.30
2019-05-30T14:56:09.079Z,56.70
2019-05-30T14:58:40.302Z,58.10
2019-05-30T15:01:13.393Z,57.40
2019-05-30T15:03:43.577Z,57.60
2019-05-30T15:06:17.721Z,56.20
2019-05-30T15:08:51.608Z,59.10
2019-05-30T15:11:24.057Z,57.60
2019-05-30T15:13:53.944Z,57.80
2019-05-30T15:16:27.592Z,59.00
2019-05-30T15:18:59.916Z,59.60
2019-05-30T15:21:34.971Z,58.30
2019-05-30T15:24:07.742Z,57.30
2019-05-30T15:26:39.051Z,57.60
2019-05-30T15:29:10.404Z,56.70
2019-05-30T15:31:43.158Z,56.70
2019-05-30T15:34:15.309Z,56.80
2019-05-30T15:36:49.867Z,56.70
2019-05-30T15:39:32.232Z,57.40
2019-05-30T15:41:55.418Z,58.50
2019-05-30T15:44:26.555Z,59.60
2019-05-30T15:47:00.838Z,57.60
2019-05-30T15:49:35.751Z,58.80
2019-05-30T15:52:06.247Z,56.90
2019-05-30T15:54:39.175Z,56.50
2019-05-30T15:57:11.134Z,56.20
2019-05-30T15:59:42.223Z,57.20
2019-05-30T16:02:16.112Z,57.70
2019-05-30T16:04:51.725Z,57.80
2019-05-30T16:07:24.034Z,57.70
2019-05-30T16:09:55.656Z,56.60
2019-05-30T16:12:24.673Z,56.90
2019-05-30T16:14:59.381Z,58.50
2019-05-30T16:17:32.225Z,56.60
2019-05-30T16:20:06.151Z,56.30
2019-05-30T16:22:37.973Z,57.20
2019-05-30T16:25:11.064Z,58.30
2019-05-30T16:27:43.612Z,56.90
2019-05-30T16:30:19.720Z,57.20
2019-05-30T16:32:48.744Z,59.20
2019-05-30T16:35:22.245Z,59.00
2019-05-30T16:37:53.579Z,58.60
2019-05-30T16:40:22.901Z,57.80
2019-05-30T16:42:54.903Z,56.80
2019-05-30T16:45:26.765Z,58.10
2019-05-30T16:47:57.479Z,60.60
2019-05-30T16:50:29.216Z,58.10
2019-05-30T16:53:02.003Z,57.90
2019-05-30T16:55:31.989Z,59.30
2019-05-30T16:58:02.033Z,59.40
2019-05-30T17:00:36.391Z,59.80
2019-05-30T17:03:07.911Z,60.60
2019-05-30T17:05:42.667Z,61.10
2019-05-30T17:08:16.011Z,60.00
2019-05-30T17:10:49.154Z,60.20
2019-05-30T17:13:19.624Z,61.30
2019-05-30T17:15:51.161Z,59.80
2019-05-30T17:18:24.347Z,60.30
2019-05-30T17:20:56.546Z,60.60
2019-05-30T17:23:29.440Z,60.40
2019-05-30T17:26:03.830Z,60.60
2019-05-30T17:28:35.148Z,61.70
2019-05-30T17:31:07.946Z,60.60
2019-05-30T17:33:39.487Z,61.10
2019-05-30T17:36:09.498Z,61.30
2019-05-30T17:38:41.801Z,61.20
2019-05-30T17:41:14.373Z,61.40
2019-05-30T17:43:45.298Z,61.80
2019-05-30T17:46:16.520Z,61.90
2019-05-30T17:48:50.893Z,61.80
2019-05-30T17:51:21.946Z,62.50
2019-05-30T17:53:53.183Z,63.70
2019-05-30T17:56:23.970Z,64.20
2019-05-30T17:58:55.024Z,64.70
2019-05-30T18:01:28.345Z,64.40
2019-05-30T18:03:57.791Z,64.80
2019-05-30T18:06:29.371Z,64.80
2019-05-30T18:09:02.909Z,64.70
2019-05-30T18:11:32.976Z,64.80
2019-05-30T18:14:07.036Z,65.40
2019-05-30T18:16:38.643Z,64.80
2019-05-30T18:19:11.549Z,65.30
2019-05-30T18:21:41.606Z,65.80
2019-05-30T18:24:14.295Z,66.10
2019-05-30T18:26:51.543Z,66.70
2019-05-30T18:31:54.634Z,66.90
2019-05-30T18:34:28.282Z,67.80
2019-05-30T18:37:04.636Z,67.80
2019-05-30T18:39:34.455Z,68.10
2019-05-30T18:42:04.301Z,68.00
2019-05-30T18:44:39.009Z,68.20
2019-05-30T18:47:11.469Z,68.40
2019-05-30T18:49:41.517Z,68.60
2019-05-30T18:52:12.720Z,68.80
2019-05-30T18:54:46.301Z,70.30
2019-05-30T18:57:17.267Z,71.20
2019-05-30T18:59:50.070Z,71.90
2019-05-30T19:02:21.144Z,71.60
2019-05-30T19:04:52.085Z,71.40
2019-05-30T19:07:26.575Z,71.70
2019-05-30T19:09:58.694Z,72.10
2019-05-30T19:12:34.274Z,71.80
2019-05-30T19:15:13.512Z,72.00
2019-05-30T19:17:46.230Z,72.60
2019-05-30T19:20:18.340Z,73.30
2019-05-30T19:22:50.601Z,73.50
2019-05-30T19:25:20.526Z,74.00
2019-05-30T19:27:52.643Z,74.40
2019-05-30T19:30:26.433Z,74.70
2019-05-30T19:33:00.672Z,74.90
2019-05-30T19:35:33.176Z,75.20
2019-05-30T19:38:06.517Z,76.20
2019-05-30T19:40:38.016Z,76.40
2019-05-30T19:43:08.287Z,76.90
2019-05-30T19:45:41.381Z,77.00
2019-05-30T19:48:16.493Z,77.00
2019-05-30T19:50:47.363Z,77.50
2019-05-30T19:53:19.819Z,77.90
2019-05-30T19:55:53.731Z,77.90
2019-05-30T19:58:23.661Z,78.00
2019-05-30T20:00:58.321Z,78.30
2019-05-30T20:03:36.251Z,78.40
2019-05-30T20:06:00.410Z,78.80
2019-05-30T20:08:46.953Z,79.00
2019-05-30T20:11:05.087Z,79.10
2019-05-30T20:13:39.197Z,79.30
2019-05-30T20:16:13.623Z,79.60
2019-05-30T20:18:43.772Z,79.70
2019-05-30T20:21:14.794Z,79.70
2019-05-30T20:23:54.539Z,80.00
2019-05-30T20:26:20.299Z,80.30
2019-05-30T20:28:52.093Z,80.50
2019-05-30T20:31:23.470Z,80.60
2019-05-30T20:33:54.587Z,80.60
2019-05-30T20:36:27.789Z,80.80
2019-05-30T20:39:00.987Z,81.00
2019-05-30T20:41:32.217Z,81.10
2019-05-30T20:44:05.857Z,81.10
2019-05-30T20:46:37.061Z,81.00
2019-05-30T20:49:09.124Z,81.20
2019-05-30T20:51:41.207Z,81.40
2019-05-30T20:54:11.329Z,81.50
2019-05-30T20:56:42.166Z,81.40
2019-05-30T20:59:13.317Z,81.70
2019-05-30T21:01:44.283Z,81.70
2019-05-30T21:04:16.684Z,82.00
2019-05-30T21:06:50.902Z,82.30
2019-05-30T21:09:28.772Z,82.10
2019-05-30T21:11:55.363Z,82.20
2019-05-30T21:14:27.814Z,82.20
2019-05-30T21:17:00.223Z,82.20
2019-05-30T21:19:31.312Z,82.20
2019-05-30T21:22:01.176Z,82.30
2019-05-30T21:24:32.015Z,82.40
2019-05-30T21:27:05.311Z,82.50
2019-05-30T21:29:35.216Z,82.80
2019-05-30T21:32:08.810Z,83.00
2019-05-30T21:34:42.424Z,82.90
2019-05-30T21:37:14.431Z,82.90
2019-05-30T21:39:48.104Z,82.90
2019-05-30T21:42:19.403Z,83.10
2019-05-30T21:44:52.375Z,83.00
2019-05-30T21:47:24.292Z,83.30
2019-05-30T21:49:56.898Z,83.50
2019-05-30T21:52:35.362Z,83.70
2019-05-30T21:55:06.274Z,83.50
2019-05-30T21:57:39.831Z,83.50
2019-05-30T22:00:14.108Z,83.60
2019-05-30T22:02:48.655Z,83.80
2019-05-30T22:05:22.414Z,83.70
2019-05-30T22:07:55.959Z,83.80
2019-05-30T22:10:26.003Z,83.80
2019-05-30T22:13:08.971Z,83.80
2019-05-30T22:15:27.905Z,83.70
2019-05-30T22:18:00.360Z,83.90
2019-05-30T22:23:02.391Z,83.90
2019-05-30T22:25:33.439Z,83.70
2019-05-30T22:28:10.615Z,83.90
2019-05-30T22:30:42.292Z,83.70
2019-05-30T22:33:13.245Z,83.90
2019-05-30T22:38:18.681Z,84.70
2019-05-30T22:40:50.035Z,85.20
2019-05-30T22:43:25.273Z,85.40
2019-05-30T22:45:55.364Z,85.70
2019-05-30T22:48:26.799Z,85.90
2019-05-30T22:50:58.043Z,86.30
2019-05-30T22:53:31.576Z,86.50
2019-05-30T22:56:02.490Z,87.00
2019-05-30T22:58:32.649Z,87.50
2019-05-30T23:01:04.863Z,87.20
2019-05-30T23:03:37.543Z,86.80
2019-05-30T23:06:09.911Z,86.70
2019-05-30T23:08:39.818Z,86.80
2019-05-30T23:11:14.277Z,86.60
2019-05-30T23:13:47.894Z,86.90
2019-05-30T23:16:19.013Z,86.90
2019-05-30T23:18:52.574Z,86.80
2019-05-30T23:21:25.610Z,86.80
2019-05-30T23:23:57.290Z,86.40
2019-05-30T23:26:28.374Z,85.90
2019-05-30T23:28:59.432Z,85.70
2019-05-30T23:31:33.274Z,85.50
2019-05-30T23:34:06.311Z,85.50
2019-05-30T23:36:39.696Z,85.30
2019-05-30T23:39:10.786Z,85.40
2019-05-30T23:41:41.760Z,85.30
2019-05-30T23:44:12.465Z,85.40
2019-05-30T23:46:42.402Z,85.60
2019-05-30T23:49:15.298Z,85.70
2019-05-30T23:51:46.226Z,85.70
2019-05-30T23:54:16.712Z,85.10
2019-05-30T23:56:47.871Z,85.30
2019-05-30T23:59:21.029Z,85.40
